Time;durP1;ratioP1;P1;durP2;ratioP2;P2;SDS_P1;SDS_P2;PMS_P1;PMS_P2;Temp;Humidity;BMP_temperature;BMP_pressure;BME280_temperature;BME280_humidity;BME280_pressure;Samples;Min_cycle;Max_cycle;Signal;HPM_P1;HPM_P2
2022/05/13 00:00:31;;;;;;;2.88;0.10;;;22.40;37.50;;;;;;5057090;28;20578;-48
2022/05/13 00:02:58;;;;;;;2.88;0.20;;;22.40;37.60;;;;;;5063662;28;20133;-50
2022/05/13 00:05:25;;;;;;;3.50;0.10;;;22.40;37.60;;;;;;5068353;28;20114;-50
2022/05/13 00:07:53;;;;;;;3.03;0.20;;;22.30;37.50;;;;;;5066908;28;20048;-46
2022/05/13 00:10:20;;;;;;;4.75;0.20;;;22.30;37.40;;;;;;5067461;28;20033;-46
2022/05/13 00:12:47;;;;;;;2.90;0.10;;;22.30;37.40;;;;;;5066842;28;20094;-45
2022/05/13 00:15:19;;;;;;;0.30;0.20;;;22.20;37.30;;;;;;5063943;28;20513;-50
2022/05/13 00:17:47;;;;;;;2.35;0.25;;;22.20;37.30;;;;;;5062124;28;20566;-50
2022/05/13 00:20:16;;;;;;;1.38;0.10;;;22.10;37.20;;;;;;5065659;28;20049;-48
2022/05/13 00:22:45;;;;;;;1.10;0.10;;;22.00;37.10;;;;;;5070437;28;20059;-46
2022/05/13 00:25:12;;;;;;;0.85;0.20;;;22.00;37.20;;;;;;5067937;28;20048;-50
2022/05/13 00:27:39;;;;;;;2.25;0.43;;;22.00;37.30;;;;;;5068808;28;20112;-47
2022/05/13 00:30:08;;;;;;;0.40;0.13;;;22.00;37.40;;;;;;5065054;28;20041;-48
2022/05/13 00:32:37;;;;;;;2.40;0.30;;;22.00;37.50;;;;;;5070074;28;20592;-45
2022/05/13 00:35:04;;;;;;;0.68;0.10;;;22.00;37.40;;;;;;5070261;28;20364;-48
2022/05/13 00:37:31;;;;;;;1.60;0.20;;;21.90;37.50;;;;;;5070837;28;20060;-45
2022/05/13 00:39:58;;;;;;;1.27;0.47;;;21.90;37.50;;;;;;5069253;28;20035;-49
2022/05/13 00:42:26;;;;;;;1.17;0.10;;;21.90;37.50;;;;;;5069463;28;20083;-46
2022/05/13 00:44:53;;;;;;;3.78;0.40;;;21.80;37.50;;;;;;5069942;28;20032;-46
2022/05/13 00:47:21;;;;;;;0.30;0.10;;;21.80;37.70;;;;;;5069006;28;20032;-46
2022/05/13 00:49:51;;;;;;;1.58;0.10;;;21.80;37.80;;;;;;5074547;28;20044;-45
2022/05/13 00:52:18;;;;;;;3.65;0.10;;;21.80;37.60;;;;;;5070272;28;20039;-46
2022/05/13 00:54:45;;;;;;;3.03;0.30;;;21.70;37.50;;;;;;5069360;28;20037;-45
2022/05/13 00:57:13;;;;;;;3.85;0.63;;;21.70;37.40;;;;;;5076815;28;20119;-45
2022/05/13 00:59:43;;;;;;;4.65;0.20;;;21.70;37.40;;;;;;5067776;28;20057;-46
2022/05/13 01:02:11;;;;;;;0.30;0.20;;;21.70;37.30;;;;;;5079784;28;20063;-46
2022/05/13 01:04:39;;;;;;;2.92;0.47;;;21.70;37.30;;;;;;5074768;28;20051;-47
2022/05/13 01:07:12;;;;;;;0.85;0.20;;;21.60;37.40;;;;;;5072498;28;20074;-47
2022/05/13 01:09:44;;;;;;;0.47;0.20;;;21.60;37.40;;;;;;5078038;28;20051;-48
2022/05/13 01:12:16;;;;;;;0.63;0.15;;;21.60;37.50;;;;;;5080329;28;20064;-50
2022/05/13 01:14:47;;;;;;;6.15;0.10;;;21.60;37.60;;;;;;5066940;28;20497;-46
2022/05/13 01:20:08;;;;;;;1.95;0.10;;;21.60;37.70;;;;;;5071034;28;20513;-51
2022/05/13 01:22:43;;;;;;;0.70;0.63;;;21.50;37.70;;;;;;5071486;28;20767;-47
2022/05/13 01:25:12;;;;;;;2.78;0.20;;;21.50;37.70;;;;;;5068027;28;20118;-48
2022/05/13 01:27:41;;;;;;;1.13;0.00;;;21.40;37.70;;;;;;5070355;28;20066;-49
2022/05/13 01:30:09;;;;;;;1.75;0.10;;;21.40;37.80;;;;;;5081132;28;20052;-45
2022/05/13 01:32:36;;;;;;;1.33;0.52;;;21.40;37.90;;;;;;5068837;28;20389;-49
2022/05/13 01:35:05;;;;;;;1.33;0.13;;;21.40;38.60;;;;;;5075275;28;20051;-46
2022/05/13 01:37:33;;;;;;;2.47;0.10;;;21.40;38.10;;;;;;5069972;28;20033;-45
2022/05/13 01:40:02;;;;;;;2.17;0.25;;;21.40;38.10;;;;;;5071710;28;20046;-45
2022/05/13 01:42:30;;;;;;;2.63;0.20;;;21.40;38.30;;;;;;5080203;28;20070;-46
2022/05/13 01:44:57;;;;;;;3.53;0.10;;;21.30;38.20;;;;;;5067640;28;20048;-47
2022/05/13 01:47:25;;;;;;;2.28;0.20;;;21.30;38.10;;;;;;5077192;28;20036;-49
2022/05/13 01:49:52;;;;;;;1.30;0.10;;;21.30;38.20;;;;;;5073879;28;20087;-46
2022/05/13 01:52:19;;;;;;;4.57;0.57;;;21.30;38.30;;;;;;5072274;28;20398;-46
2022/05/13 01:54:47;;;;;;;1.55;0.20;;;21.30;38.40;;;;;;5069921;28;20121;-45
2022/05/13 01:57:16;;;;;;;2.80;0.10;;;21.20;38.20;;;;;;5079309;28;20122;-51
2022/05/13 01:59:43;;;;;;;3.00;0.35;;;21.20;38.30;;;;;;5068357;28;20535;-47
2022/05/13 02:02:10;;;;;;;0.88;0.60;;;21.20;38.30;;;;;;5074331;28;20043;-47
2022/05/13 02:04:37;;;;;;;2.72;0.43;;;21.20;38.40;;;;;;5096392;28;20055;-47
2022/05/13 02:07:05;;;;;;;2.05;0.20;;;21.20;38.30;;;;;;5065838;28;20044;-47
2022/05/13 02:09:32;;;;;;;1.35;0.30;;;21.20;38.90;;;;;;5069701;28;20105;-51
2022/05/13 02:11:59;;;;;;;1.17;0.10;;;21.10;38.20;;;;;;5080328;28;20047;-51
2022/05/13 02:14:28;;;;;;;2.05;0.10;;;21.10;38.30;;;;;;5081037;28;20500;-51
2022/05/13 02:16:55;;;;;;;4.72;0.10;;;21.10;38.30;;;;;;5073760;28;20060;-48
2022/05/13 02:19:22;;;;;;;0.32;0.25;;;21.10;38.30;;;;;;5071434;28;21013;-48
2022/05/13 02:21:49;;;;;;;1.65;0.10;;;21.10;38.40;;;;;;5070661;28;20040;-45
2022/05/13 02:24:16;;;;;;;1.48;0.10;;;21.10;38.50;;;;;;5069622;28;20052;-45
2022/05/13 02:26:43;;;;;;;4.55;0.10;;;21.10;38.60;;;;;;5063682;28;20106;-43
2022/05/13 02:29:11;;;;;;;3.25;0.20;;;21.00;39.10;;;;;;5068846;28;20041;-46
2022/05/13 02:31:39;;;;;;;1.98;0.13;;;21.00;38.40;;;;;;5070748;28;20123;-44
2022/05/13 02:34:06;;;;;;;2.45;0.10;;;21.00;38.40;;;;;;5065750;28;20480;-46
2022/05/13 02:36:33;;;;;;;2.70;0.20;;;21.00;38.50;;;;;;5072442;28;20039;-49
2022/05/13 02:39:00;;;;;;;2.63;0.10;;;21.00;38.50;;;;;;5079214;28;20038;-46
2022/05/13 02:41:27;;;;;;;2.88;0.30;;;21.00;38.60;;;;;;5067523;28;20040;-45
2022/05/13 02:43:56;;;;;;;1.45;0.73;;;21.00;39.20;;;;;;5072701;28;20473;-45
2022/05/13 02:46:25;;;;;;;3.63;0.10;;;21.00;38.70;;;;;;5074527;28;20048;-48
2022/05/13 02:48:53;;;;;;;4.53;0.10;;;21.00;38.70;;;;;;5066641;28;20136;-47
2022/05/13 02:51:21;;;;;;;1.23;0.10;;;21.00;38.60;;;;;;5068142;28;20029;-45
2022/05/13 02:53:48;;;;;;;1.65;0.20;;;20.90;38.70;;;;;;5065783;28;20119;-45
2022/05/13 02:56:16;;;;;;;0.75;0.15;;;20.90;38.50;;;;;;5081859;28;20036;-53
2022/05/13 02:58:43;;;;;;;1.30;0.65;;;20.90;38.60;;;;;;5071244;28;20563;-47
2022/05/13 03:01:12;;;;;;;2.17;0.10;;;20.90;38.60;;;;;;5069497;28;20140;-49
2022/05/13 03:03:41;;;;;;;2.20;0.80;;;20.90;38.60;;;;;;5065770;28;20071;-49
2022/05/13 03:06:09;;;;;;;5.43;0.10;;;20.90;38.40;;;;;;5067526;28;20032;-47
2022/05/13 03:08:37;;;;;;;2.75;0.10;;;20.90;38.50;;;;;;5062707;28;20040;-47
2022/05/13 03:11:05;;;;;;;0.95;0.10;;;20.80;38.60;;;;;;5065952;28;20051;-50
2022/05/13 03:13:32;;;;;;;2.35;0.10;;;20.80;38.70;;;;;;5067702;28;20154;-48
2022/05/13 03:16:03;;;;;;;1.08;0.10;;;20.80;38.70;;;;;;5070498;28;20435;-47
2022/05/13 03:18:30;;;;;;;1.70;0.47;;;20.80;38.90;;;;;;5070056;28;20124;-49
2022/05/13 03:20:57;;;;;;;3.92;0.30;;;20.80;38.90;;;;;;5069973;28;20037;-46
2022/05/13 03:23:25;;;;;;;0.98;0.10;;;20.80;39.00;;;;;;5080250;28;20068;-51
2022/05/13 03:25:52;;;;;;;2.00;0.13;;;20.80;39.10;;;;;;5070999;28;20032;-46
2022/05/13 03:28:20;;;;;;;8.85;1.45;;;20.80;39.10;;;;;;5075013;28;20041;-45
2022/05/13 03:30:49;;;;;;;3.22;0.77;;;20.70;39.20;;;;;;5067493;28;20106;-49
2022/05/13 03:33:17;;;;;;;3.88;0.57;;;20.70;39.40;;;;;;5067487;28;20450;-48
2022/05/13 03:35:44;;;;;;;1.23;0.20;;;20.70;39.50;;;;;;5067905;28;20040;-48
2022/05/13 03:38:11;;;;;;;2.78;0.40;;;20.70;39.50;;;;;;5082488;28;20048;-47
2022/05/13 03:40:40;;;;;;;2.25;0.82;;;20.70;39.50;;;;;;5070320;28;20513;-46
2022/05/13 03:43:07;;;;;;;3.28;1.17;;;20.70;39.70;;;;;;5065961;28;20881;-48
2022/05/13 03:45:36;;;;;;;4.22;1.00;;;20.70;39.80;;;;;;5072629;28;20036;-44
2022/05/13 03:48:03;;;;;;;4.28;0.63;;;20.60;39.70;;;;;;5065588;28;20131;-48
2022/05/13 03:50:31;;;;;;;2.67;0.40;;;20.60;39.90;;;;;;5067220;28;20237;-49
2022/05/13 03:52:57;;;;;;;4.22;1.15;;;20.60;40.00;;;;;;5071519;28;20045;-46
2022/05/13 03:55:25;;;;;;;5.82;0.90;;;20.60;40.00;;;;;;5074429;28;20493;-49
2022/05/13 03:57:53;;;;;;;2.65;0.40;;;20.60;39.90;;;;;;5068853;28;20605;-50
2022/05/13 04:00:20;;;;;;;6.53;0.95;;;20.50;40.00;;;;;;5066294;28;20048;-51
2022/05/13 04:02:48;;;;;;;2.17;0.75;;;20.50;40.20;;;;;;5064405;28;20047;-47
2022/05/13 04:10:46;;;;;;;1.80;0.52;;;20.40;40.20;;;;;;5066660;28;20044;-51
2022/05/13 04:16:07;;;;;;;1.65;0.43;;;20.40;40.20;;;;;;5005788;28;20046;-49
2022/05/13 04:18:37;;;;;;;6.03;0.70;;;20.30;40.30;;;;;;5008282;28;20564;-49
2022/05/13 04:21:06;;;;;;;2.10;0.10;;;20.30;40.30;;;;;;5002054;28;20049;-49
2022/05/13 04:23:34;;;;;;;4.53;1.27;;;20.30;40.40;;;;;;5001217;28;20048;-47
2022/05/13 04:26:01;;;;;;;2.58;0.40;;;20.30;40.50;;;;;;5009120;28;20068;-47
2022/05/13 04:28:30;;;;;;;2.95;0.60;;;20.20;40.60;;;;;;5008002;28;20049;-49
2022/05/13 04:30:59;;;;;;;4.70;0.60;;;20.20;40.70;;;;;;5008821;28;20095;-48
2022/05/13 04:33:26;;;;;;;4.32;0.20;;;20.20;40.80;;;;;;5008606;28;20391;-44
2022/05/13 04:35:54;;;;;;;1.27;0.15;;;20.20;40.80;;;;;;5006398;28;20446;-48
2022/05/13 04:38:21;;;;;;;3.50;0.30;;;20.20;41.00;;;;;;5004980;28;20664;-46
2022/05/13 04:40:48;;;;;;;2.28;0.38;;;20.20;41.10;;;;;;5016406;28;20100;-48
2022/05/13 04:43:14;;;;;;;3.85;0.40;;;20.20;41.10;;;;;;4989583;28;20042;-46
2022/05/13 04:45:43;;;;;;;6.65;0.85;;;20.20;41.20;;;;;;5007762;28;20635;-49
2022/05/13 04:48:18;;;;;;;2.70;0.45;;;20.20;41.30;;;;;;5010663;28;20034;-56
2022/05/13 04:50:50;;;;;;;3.42;0.80;;;20.20;41.30;;;;;;5008371;28;20054;-45
2022/05/13 04:53:20;;;;;;;2.13;0.68;;;20.20;41.40;;;;;;5053919;28;20587;-47
2022/05/13 04:55:48;;;;;;;2.45;0.25;;;20.20;41.50;;;;;;5079812;28;20109;-49
2022/05/13 04:58:15;;;;;;;3.42;0.47;;;20.20;41.50;;;;;;5064346;28;20047;-47
2022/05/13 05:00:44;;;;;;;3.80;0.25;;;20.20;41.50;;;;;;5055910;28;20052;-46
2022/05/13 05:03:12;;;;;;;2.30;0.80;;;20.20;41.50;;;;;;5059604;28;20155;-47
2022/05/13 05:05:41;;;;;;;2.22;0.75;;;20.20;41.60;;;;;;5080184;28;20041;-48
2022/05/13 05:08:08;;;;;;;2.90;0.10;;;20.20;41.60;;;;;;5071247;28;20052;-49
2022/05/13 05:10:36;;;;;;;4.95;0.43;;;20.20;41.70;;;;;;5076224;28;20050;-46
2022/05/13 05:13:03;;;;;;;3.35;0.20;;;20.20;41.70;;;;;;5074449;28;20048;-47
2022/05/13 05:15:30;;;;;;;5.18;0.63;;;20.20;41.80;;;;;;5077508;28;20051;-46
2022/05/13 05:17:59;;;;;;;3.67;0.35;;;20.20;41.70;;;;;;5067211;28;20037;-52
2022/05/13 05:20:27;;;;;;;5.00;0.88;;;20.30;41.90;;;;;;5071174;28;20072;-49
2022/05/13 05:22:54;;;;;;;5.30;0.90;;;20.20;41.90;;;;;;5078707;28;20067;-49
2022/05/13 05:25:28;;;;;;;3.13;0.38;;;20.20;42.10;;;;;;5069403;28;20051;-47
2022/05/13 05:27:56;;;;;;;4.50;0.30;;;20.30;42.30;;;;;;5067841;28;20041;-48
2022/05/13 05:30:24;;;;;;;3.70;0.73;;;20.30;42.30;;;;;;5067676;28;20028;-47
2022/05/13 05:32:51;;;;;;;3.63;0.30;;;20.30;42.40;;;;;;5060378;28;20045;-47
2022/05/13 05:35:23;;;;;;;3.08;0.50;;;20.30;42.50;;;;;;5068978;28;20043;-48
2022/05/13 05:37:50;;;;;;;4.93;0.20;;;20.30;42.50;;;;;;5072693;28;20156;-47
2022/05/13 05:40:17;;;;;;;4.13;0.20;;;20.30;42.50;;;;;;5067212;28;20033;-46
2022/05/13 05:42:45;;;;;;;2.28;0.20;;;20.30;42.50;;;;;;5069096;28;20072;-46
2022/05/13 05:45:14;;;;;;;12.43;0.38;;;20.30;42.50;;;;;;5071710;28;20044;-48
2022/05/13 05:47:41;;;;;;;3.72;0.70;;;20.30;42.60;;;;;;5067891;28;20040;-46
2022/05/13 05:50:12;;;;;;;3.90;0.10;;;20.30;42.60;;;;;;5074097;28;20060;-49
2022/05/13 05:52:41;;;;;;;2.58;0.75;;;20.30;42.60;;;;;;5073911;28;20044;-49
2022/05/13 05:57:58;;;;;;;1.80;0.28;;;20.40;42.70;;;;;;5065942;28;20051;-50
2022/05/13 06:00:26;;;;;;;3.85;0.50;;;20.40;42.80;;;;;;5069029;28;20040;-46
2022/05/13 06:02:54;;;;;;;4.13;0.30;;;20.40;43.00;;;;;;5069510;28;20204;-47
2022/05/13 06:05:21;;;;;;;8.48;0.30;;;20.40;43.00;;;;;;5068001;28;20144;-50
2022/05/13 06:07:50;;;;;;;2.45;0.20;;;20.40;43.10;;;;;;5082363;28;20089;-47
2022/05/13 06:10:18;;;;;;;2.35;0.57;;;20.50;43.20;;;;;;5071500;28;20035;-49
2022/05/13 06:12:45;;;;;;;3.83;0.40;;;20.60;43.10;;;;;;5076348;28;20085;-49
2022/05/13 06:15:13;;;;;;;10.45;0.73;;;20.60;43.00;;;;;;5066321;28;20068;-45
2022/05/13 06:17:45;;;;;;;7.40;0.30;;;20.70;43.00;;;;;;5079196;28;20121;-48
2022/05/13 06:20:13;;;;;;;3.42;0.40;;;20.70;42.80;;;;;;5079789;28;20065;-50
2022/05/13 06:22:40;;;;;;;4.32;0.82;;;20.60;42.80;;;;;;5083664;28;20054;-49
2022/05/13 06:25:11;;;;;;;4.75;0.52;;;20.60;42.90;;;;;;5069206;28;20428;-47
2022/05/13 06:27:39;;;;;;;3.42;0.45;;;20.60;42.90;;;;;;5064243;28;20083;-50
2022/05/13 06:30:09;;;;;;;4.35;0.73;;;20.60;43.00;;;;;;5065960;28;20033;-47
2022/05/13 06:32:37;;;;;;;4.68;2.28;;;20.60;43.00;;;;;;5065873;28;20076;-48
2022/05/13 06:35:06;;;;;;;4.13;0.50;;;20.50;43.10;;;;;;5083840;28;20044;-47
2022/05/13 06:37:33;;;;;;;5.97;0.25;;;20.50;42.90;;;;;;5072809;28;20131;-46
2022/05/13 06:40:00;;;;;;;10.32;0.38;;;20.50;42.90;;;;;;5070257;28;20591;-47
2022/05/13 06:42:29;;;;;;;10.05;0.35;;;20.50;43.00;;;;;;5071171;28;20119;-49
2022/05/13 06:44:56;;;;;;;4.03;0.30;;;20.50;43.10;;;;;;5059782;28;20068;-47
2022/05/13 06:47:23;;;;;;;4.28;0.38;;;20.50;43.00;;;;;;5067069;28;20106;-47
2022/05/13 06:49:50;;;;;;;3.10;0.65;;;20.50;42.90;;;;;;5092409;28;20037;-48
2022/05/13 06:52:17;;;;;;;7.53;0.38;;;20.60;43.00;;;;;;5070614;28;20152;-50
2022/05/13 06:54:45;;;;;;;2.25;0.25;;;20.60;43.00;;;;;;5063616;28;20040;-48
2022/05/13 06:57:12;;;;;;;11.27;0.50;;;20.60;42.70;;;;;;5064447;28;20033;-50
2022/05/13 06:59:41;;;;;;;0.55;0.10;;;20.60;42.30;;;;;;5066631;28;20056;-47
2022/05/13 07:02:08;;;;;;;4.70;0.10;;;20.60;41.80;;;;;;5068274;28;20135;-48
2022/05/13 07:04:36;;;;;;;8.05;0.10;;;20.60;41.90;;;;;;5073556;28;20044;-49
2022/05/13 07:07:03;;;;;;;7.93;0.52;;;20.60;41.80;;;;;;5070579;28;20124;-46
2022/05/13 07:09:31;;;;;;;2.05;0.55;;;20.60;41.60;;;;;;5076475;28;20048;-48
2022/05/13 07:11:58;;;;;;;9.07;0.38;;;20.60;41.60;;;;;;5066415;28;20036;-56
2022/05/13 07:14:26;;;;;;;2.47;0.20;;;20.70;42.50;;;;;;5047343;28;20059;-57
2022/05/13 07:16:55;;;;;;;5.13;0.60;;;20.80;43.00;;;;;;5067466;28;20037;-60
2022/05/13 07:19:23;;;;;;;1.65;0.45;;;20.90;43.00;;;;;;5066000;28;20048;-60
2022/05/13 07:21:52;;;;;;;1.77;0.82;;;21.10;42.70;;;;;;5062558;28;20051;-60
2022/05/13 07:24:19;;;;;;;1.98;0.28;;;21.30;42.30;;;;;;5061618;28;20037;-59
2022/05/13 07:26:46;;;;;;;2.83;0.90;;;21.50;41.90;;;;;;5063880;28;20040;-60
2022/05/13 07:29:14;;;;;;;3.00;0.38;;;21.70;41.40;;;;;;5066627;28;20036;-56
2022/05/13 07:31:41;;;;;;;0.73;0.10;;;21.90;41.00;;;;;;5060061;28;20086;-58
2022/05/13 07:34:11;;;;;;;2.47;0.10;;;22.00;40.50;;;;;;5059418;28;20398;-57
2022/05/13 07:36:38;;;;;;;4.47;0.20;;;22.20;40.00;;;;;;5063141;28;20043;-50
2022/05/13 07:41:51;;;;;;;4.03;0.10;;;22.50;39.00;;;;;;5052555;28;20048;-58
2022/05/13 07:44:19;;;;;;;3.92;0.38;;;22.70;38.70;;;;;;5060670;28;20044;-59
2022/05/13 07:46:46;;;;;;;2.92;0.30;;;22.80;38.40;;;;;;5065947;28;20044;-62
2022/05/13 07:49:15;;;;;;;1.17;0.10;;;23.00;37.80;;;;;;5063400;28;20186;-62
2022/05/13 07:51:44;;;;;;;5.57;0.13;;;23.20;37.20;;;;;;5059169;28;20041;-68
2022/05/13 07:54:12;;;;;;;1.80;0.10;;;23.40;36.70;;;;;;5058629;28;20044;-62
2022/05/13 07:56:39;;;;;;;0.85;0.10;;;23.50;36.60;;;;;;5056187;28;20099;-64
2022/05/13 07:59:07;;;;;;;1.75;0.22;;;23.70;36.00;;;;;;5064708;28;20071;-61
2022/05/13 08:01:34;;;;;;;3.03;0.10;;;23.90;35.80;;;;;;5061826;28;20056;-58
2022/05/13 08:04:01;;;;;;;3.15;0.30;;;24.10;35.60;;;;;;5071513;28;20037;-54
2022/05/13 08:06:30;;;;;;;3.78;0.40;;;24.20;35.30;;;;;;5071127;28;20071;-51
2022/05/13 08:08:58;;;;;;;1.33;0.20;;;24.30;34.90;;;;;;5066655;28;20044;-52
2022/05/13 08:11:28;;;;;;;1.98;0.25;;;24.40;34.40;;;;;;5065368;28;20127;-52
2022/05/13 08:13:57;;;;;;;1.88;0.60;;;24.50;34.20;;;;;;5061844;28;20040;-55
2022/05/13 08:16:26;;;;;;;0.60;0.17;;;24.60;33.90;;;;;;5064834;28;20072;-55
2022/05/13 08:18:54;;;;;;;2.80;0.10;;;24.70;33.80;;;;;;5066085;28;20068;-54
2022/05/13 08:21:22;;;;;;;2.88;0.10;;;24.70;33.60;;;;;;5066168;28;20123;-57
2022/05/13 08:23:51;;;;;;;1.70;0.32;;;24.80;33.60;;;;;;5061804;28;20048;-56
2022/05/13 08:26:19;;;;;;;0.28;0.20;;;24.80;33.50;;;;;;5064455;28;20098;-52
2022/05/13 08:28:47;;;;;;;1.70;0.10;;;24.80;33.60;;;;;;5071042;28;20063;-53
2022/05/13 08:31:14;;;;;;;1.98;0.10;;;24.70;33.70;;;;;;5065147;28;20032;-56
2022/05/13 08:33:42;;;;;;;2.97;0.20;;;24.60;34.00;;;;;;5061840;28;20122;-61
2022/05/13 08:36:10;;;;;;;4.68;0.50;;;24.50;34.20;;;;;;5083736;28;20041;-48
2022/05/13 08:38:39;;;;;;;3.42;0.10;;;24.40;34.20;;;;;;5071407;28;20492;-56
2022/05/13 08:41:26;;;;;;;14.15;0.82;;;24.40;35.20;;;;;;5085063;28;20100;-58
2022/05/13 08:43:56;;;;;;;5.28;0.28;;;24.50;36.00;;;;;;5085684;28;20055;-58
2022/05/13 08:46:34;;;;;;;4.90;0.57;;;24.50;36.30;;;;;;5087368;28;20048;-55
2022/05/13 08:49:07;;;;;;;5.97;0.20;;;24.70;36.40;;;;;;5094646;28;20036;-56
2022/05/13 08:51:45;;;;;;;7.40;0.20;;;24.70;36.40;;;;;;5086197;28;20132;-54
2022/05/13 08:54:15;;;;;;;2.53;0.60;;;24.90;36.40;;;;;;5075837;28;20040;-57
2022/05/13 08:56:46;;;;;;;4.45;0.22;;;24.90;36.30;;;;;;5091098;28;20044;-55
2022/05/13 08:59:18;;;;;;;4.80;0.30;;;25.00;36.10;;;;;;5098488;28;20074;-55
2022/05/13 09:01:49;;;;;;;0.50;0.47;;;25.10;36.00;;;;;;5088557;28;20067;-57
2022/05/13 09:04:32;;;;;;;5.20;0.75;;;25.20;36.00;;;;;;5085249;28;20047;-53
2022/05/13 09:07:03;;;;;;;13.20;0.82;;;25.30;35.80;;;;;;5072430;28;20043;-55
2022/05/13 09:09:31;;;;;;;4.22;0.60;;;25.30;35.70;;;;;;5078258;28;20036;-55
2022/05/13 09:12:10;;;;;;;7.78;0.43;;;25.40;35.70;;;;;;5068468;28;20113;-51
2022/05/13 09:14:43;;;;;;;2.35;0.52;;;25.50;35.70;;;;;;5066220;28;20052;-57
2022/05/13 09:17:29;;;;;;;4.05;0.22;;;25.50;35.60;;;;;;5084002;28;20380;-55
2022/05/13 09:20:00;;;;;;;3.33;0.57;;;25.60;35.50;;;;;;5073568;28;20140;-54
2022/05/13 09:22:34;;;;;;;1.08;0.20;;;25.60;35.50;;;;;;5068023;28;20090;-53
2022/05/13 09:25:01;;;;;;;4.82;0.40;;;25.60;35.40;;;;;;5077824;28;20073;-55
2022/05/13 09:27:30;;;;;;;4.15;0.52;;;25.70;35.50;;;;;;5078277;28;20032;-54
2022/05/13 09:29:57;;;;;;;1.88;1.10;;;25.70;35.40;;;;;;5079871;28;20048;-50
2022/05/13 09:32:27;;;;;;;1.80;0.32;;;25.70;35.30;;;;;;5067496;28;20063;-53
2022/05/13 09:35:00;;;;;;;2.70;0.85;;;25.70;35.30;;;;;;5084472;28;20580;-52
2022/05/13 09:37:36;;;;;;;2.63;0.20;;;25.80;35.20;;;;;;5070330;28;20505;-53
2022/05/13 09:40:10;;;;;;;0.57;0.47;;;25.80;35.20;;;;;;5065125;28;20051;-54
2022/05/13 09:42:40;;;;;;;2.28;0.20;;;25.80;35.20;;;;;;5070379;28;20067;-54
2022/05/13 09:45:23;;;;;;;1.83;0.40;;;25.90;35.20;;;;;;5080607;28;20044;-54
2022/05/13 09:48:17;;;;;;;3.47;0.40;;;26.00;35.20;;;;;;5068984;28;20089;-54
2022/05/13 09:50:49;;;;;;;3.58;0.50;;;26.00;35.80;;;;;;5059715;28;20505;-55
2022/05/13 09:53:30;;;;;;;5.25;0.50;;;26.00;35.20;;;;;;5081997;28;20068;-51
2022/05/13 09:56:01;;;;;;;2.67;0.40;;;26.00;35.10;;;;;;5074925;28;20067;-54
2022/05/13 09:58:33;;;;;;;0.90;0.30;;;26.00;35.10;;;;;;5070938;28;20053;-55
2022/05/13 10:01:04;;;;;;;0.47;0.10;;;26.10;35.10;;;;;;5067023;28;20053;-53
2022/05/13 10:03:36;;;;;;;0.20;0.20;;;26.10;35.10;;;;;;5069129;28;20036;-55
2022/05/13 10:06:19;;;;;;;0.82;0.10;;;26.10;35.10;;;;;;5071157;28;20036;-56
2022/05/13 10:08:54;;;;;;;2.17;0.20;;;26.10;35.00;;;;;;5060663;28;20540;-53
2022/05/13 10:14:26;;;;;;;3.78;0.20;;;26.10;35.00;;;;;;5046156;28;20118;-58
2022/05/13 10:16:57;;;;;;;3.10;0.30;;;26.20;33.80;;;;;;5066416;28;20040;-58
2022/05/13 10:19:34;;;;;;;1.30;0.13;;;26.10;33.60;;;;;;5045336;28;20053;-60
2022/05/13 10:22:11;;;;;;;3.10;0.30;;;26.10;33.30;;;;;;5062269;28;20102;-61
2022/05/13 10:24:47;;;;;;;7.35;0.10;;;26.10;32.90;;;;;;5065837;28;20040;-65
2022/05/13 10:27:24;;;;;;;7.70;0.98;;;26.10;32.50;;;;;;5066596;28;20423;-52
2022/05/13 10:29:56;;;;;;;1.67;0.10;;;26.20;32.60;;;;;;5062111;28;20060;-50
2022/05/13 10:32:28;;;;;;;0.10;0.10;;;26.20;32.60;;;;;;5062105;28;20048;-51
2022/05/13 10:34:57;;;;;;;6.25;0.22;;;26.30;32.40;;;;;;5064557;28;20036;-63
2022/05/13 10:37:32;;;;;;;0.63;0.10;;;26.40;33.30;;;;;;5064852;28;20143;-59
2022/05/13 10:40:04;;;;;;;1.48;0.20;;;26.40;32.60;;;;;;5063842;28;20128;-58
2022/05/13 10:42:36;;;;;;;4.72;0.20;;;26.50;32.60;;;;;;5061938;28;20035;-60
2022/05/13 10:45:08;;;;;;;4.38;0.22;;;26.50;32.50;;;;;;5064295;28;20054;-62
2022/05/13 10:47:40;;;;;;;5.15;0.10;;;26.60;32.40;;;;;;5060362;28;20077;-63
2022/05/13 10:50:14;;;;;;;1.25;0.10;;;26.70;32.10;;;;;;5062375;28;20590;-54
2022/05/13 10:52:52;;;;;;;2.03;0.10;;;26.70;31.90;;;;;;5065926;28;20050;-52
2022/05/13 10:55:24;;;;;;;1.35;0.10;;;26.80;31.90;;;;;;5064169;28;20044;-55
2022/05/13 10:58:02;;;;;;;5.30;0.25;;;26.90;31.80;;;;;;5062329;28;20066;-55
2022/05/13 11:00:43;;;;;;;1.42;0.10;;;26.90;31.50;;;;;;5056321;28;20044;-66
2022/05/13 11:03:34;;;;;;;4.45;0.22;;;27.00;31.40;;;;;;5061222;28;20040;-67
2022/05/13 11:06:11;;;;;;;1.05;0.10;;;27.10;31.20;;;;;;5064490;28;20040;-65
2022/05/13 11:08:49;;;;;;;2.08;0.45;;;27.20;31.20;;;;;;5062126;28;20131;-65
2022/05/13 11:11:34;;;;;;;0.75;0.20;;;27.20;31.10;;;;;;5063444;28;20036;-65
2022/05/13 11:14:12;;;;;;;3.17;0.10;;;27.40;31.00;;;;;;5067665;28;20048;-55
2022/05/13 11:16:52;;;;;;;6.13;0.22;;;27.40;31.20;;;;;;5067963;28;20036;-56
2022/05/13 11:19:27;;;;;;;3.40;0.20;;;27.50;31.40;;;;;;5065190;28;20047;-58
2022/05/13 11:22:01;;;;;;;3.40;0.38;;;27.60;31.40;;;;;;5067367;28;20075;-54
2022/05/13 11:27:54;;;;;;;2.08;0.10;;;27.70;30.90;;;;;;5063822;28;20052;-49
2022/05/13 11:30:35;;;;;;;1.98;0.20;;;27.80;31.00;;;;;;5042942;28;20041;-46
2022/05/13 11:33:18;;;;;;;1.25;0.15;;;27.80;30.70;;;;;;5067621;28;20039;-49
2022/05/13 11:36:03;;;;;;;3.75;0.30;;;27.90;30.80;;;;;;5064471;28;20044;-51
2022/05/13 11:38:45;;;;;;;0.55;0.10;;;28.00;30.60;;;;;;5064811;28;20556;-63
2022/05/13 11:41:14;;;;;;;2.00;0.47;;;28.10;30.60;;;;;;5064627;28;20042;-62
2022/05/13 11:43:50;;;;;;;3.15;0.45;;;28.10;30.40;;;;;;5066546;28;20807;-62
2022/05/13 11:46:49;;;;;;;3.30;0.32;;;28.20;30.00;;;;;;5064987;28;20487;-60
2022/05/13 11:49:23;;;;;;;0.20;0.10;;;28.30;29.90;;;;;;5067875;28;20044;-65
2022/05/13 11:51:51;;;;;;;1.00;0.10;;;28.30;29.70;;;;;;5061954;28;20040;-64
2022/05/13 11:54:23;;;;;;;1.10;0.10;;;28.30;29.60;;;;;;5065886;28;20094;-64
2022/05/13 11:57:11;;;;;;;0.80;0.00;;;28.40;29.70;;;;;;5065337;28;20044;-64
2022/05/13 11:59:47;;;;;;;0.10;0.10;;;28.50;29.70;;;;;;5061403;28;20147;-49
2022/05/13 12:02:32;;;;;;;0.93;0.10;;;28.50;29.60;;;;;;5065550;28;20041;-62
2022/05/13 12:05:10;;;;;;;1.87;0.10;;;28.60;29.50;;;;;;5064408;28;20048;-63
2022/05/13 12:07:49;;;;;;;0.10;0.00;;;28.70;29.50;;;;;;5065366;28;20380;-57
2022/05/13 12:10:18;;;;;;;4.00;0.30;;;28.70;29.50;;;;;;5058452;28;20033;-52
2022/05/13 12:13:11;;;;;;;0.65;0.10;;;28.80;29.60;;;;;;5061540;28;20051;-54
2022/05/13 12:15:46;;;;;;;1.38;0.10;;;28.90;29.90;;;;;;5067879;28;20054;-57
2022/05/13 12:18:26;;;;;;;3.70;0.30;;;28.90;29.80;;;;;;5065437;28;20046;-56
2022/05/13 12:20:59;;;;;;;4.28;0.10;;;29.00;29.50;;;;;;5063418;28;20044;-55
2022/05/13 12:23:31;;;;;;;1.02;0.10;;;29.00;29.50;;;;;;5070662;28;20910;-58
2022/05/13 12:26:01;;;;;;;8.27;0.20;;;29.10;29.20;;;;;;5070873;28;20131;-57
2022/05/13 12:28:40;;;;;;;12.57;0.98;;;29.20;29.20;;;;;;5065542;28;20632;-49
2022/05/13 12:31:37;;;;;;;3.72;0.30;;;29.20;30.00;;;;;;5059265;28;20521;-48
2022/05/13 12:39:54;;;;;;;2.17;0.10;;;29.40;32.20;;;;;;5066533;28;20457;-48
2022/05/13 12:42:39;;;;;;;0.25;0.10;;;29.50;32.60;;;;;;5064384;28;20554;-50
2022/05/13 12:45:11;;;;;;;0.52;0.10;;;29.50;32.80;;;;;;5067864;28;20070;-50
2022/05/13 12:48:12;;;;;;;1.45;0.20;;;29.60;33.20;;;;;;5066532;28;20137;-51
2022/05/13 12:50:42;;;;;;;1.65;0.20;;;29.70;33.30;;;;;;5065171;28;20761;-46
2022/05/13 12:53:37;;;;;;;1.30;0.10;;;29.70;33.60;;;;;;5070276;28;20509;-50
2022/05/13 12:56:23;;;;;;;2.13;0.10;;;29.80;33.70;;;;;;5064844;28;20528;-49
2022/05/13 12:58:59;;;;;;;2.65;0.00;;;29.90;34.00;;;;;;5068104;28;20110;-51
2022/05/13 13:01:28;;;;;;;0.85;0.10;;;29.90;34.10;;;;;;5065080;28;20147;-47
2022/05/13 13:03:57;;;;;;;0.30;0.10;;;30.10;34.30;;;;;;5070318;28;20048;-49
2022/05/13 13:06:26;;;;;;;1.77;0.10;;;30.10;34.40;;;;;;5068023;28;20044;-50
2022/05/13 13:08:54;;;;;;;0.10;0.05;;;30.20;35.00;;;;;;5064593;28;20123;-50
2022/05/13 13:11:31;;;;;;;4.85;0.57;;;30.20;34.50;;;;;;5062556;28;20544;-49
2022/05/13 13:14:11;;;;;;;0.63;0.00;;;30.40;34.50;;;;;;5067708;28;20045;-54
2022/05/13 13:16:43;;;;;;;2.95;0.10;;;30.40;34.60;;;;;;5078897;28;20147;-50
2022/05/13 13:19:14;;;;;;;1.10;0.10;;;30.50;34.70;;;;;;5071612;28;20394;-53
2022/05/13 13:21:43;;;;;;;6.93;0.63;;;30.60;34.80;;;;;;5081481;28;20050;-51
2022/05/13 13:24:17;;;;;;;0.30;0.10;;;30.60;34.80;;;;;;5080399;28;20124;-57
2022/05/13 13:26:50;;;;;;;5.43;0.38;;;30.60;34.90;;;;;;5065419;28;20129;-66
2022/05/13 13:29:22;;;;;;;3.70;0.10;;;30.50;35.20;;;;;;5083728;28;20143;-65
2022/05/13 13:31:51;;;;;;;2.60;0.10;;;30.40;35.50;;;;;;5065100;28;20041;-64